createdAt,value
2019-03-11T00:01:21.222Z,3.2
2019-03-11T00:01:51.455Z,3.2
2019-03-11T00:02:21.664Z,3.2
2019-03-11T00:02:51.882Z,3.2
2019-03-11T00:03:22.001Z,3.2
2019-03-11T00:04:21.402Z,3.2
2019-03-11T00:05:17.330Z,3.2
2019-03-11T00:06:16.032Z,3.2
2019-03-11T00:07:15.516Z,3.2
2019-03-11T00:08:14.138Z,3.2
2019-03-11T00:09:13.533Z,3.2
2019-03-11T00:10:12.310Z,3.3
2019-03-11T00:11:11.113Z,3.3
2019-03-11T00:11:41.828Z,3.3
2019-03-11T00:12:12.286Z,3.3
2019-03-11T00:12:42.414Z,3.3
2019-03-11T00:14:08.296Z,3.3
2019-03-11T00:15:07.202Z,3.3
2019-03-11T00:16:06.411Z,3.3
2019-03-11T00:17:05.625Z,3.3
2019-03-11T00:18:04.336Z,3.3
2019-03-11T00:19:03.666Z,3.3
2019-03-11T00:20:02.577Z,3.3
2019-03-11T00:20:33.192Z,3.3
2019-03-11T00:21:03.707Z,3.3
2019-03-11T00:21:34.328Z,3.3
2019-03-11T00:22:04.945Z,3.3
2019-03-11T00:22:35.276Z,3.3
2019-03-11T00:23:06.026Z,3.3
2019-03-11T00:23:36.301Z,3.3
2019-03-11T00:24:57.561Z,3.3
2019-03-11T00:25:56.366Z,3.3
2019-03-11T00:26:55.765Z,3.3
2019-03-11T00:27:54.488Z,3.3
2019-03-11T00:28:53.692Z,3.3
2019-03-11T00:29:52.917Z,3.2
2019-03-11T00:30:23.134Z,3.2
2019-03-11T00:30:53.763Z,3.2
2019-03-11T00:31:24.204Z,3.2
2019-03-11T00:31:54.914Z,3.2
2019-03-11T00:32:25.052Z,3.2
2019-03-11T00:32:55.631Z,3.2
2019-03-11T00:33:26.159Z,3.2
2019-03-11T00:34:47.613Z,3.3
2019-03-11T00:35:47.018Z,3.3
2019-03-11T00:36:45.823Z,3.3
2019-03-11T00:37:44.730Z,3.3
2019-03-11T00:38:44.073Z,3.3
2019-03-11T00:39:42.876Z,3.3
2019-03-11T00:40:12.994Z,3.3
2019-03-11T00:40:43.625Z,3.4
2019-03-11T00:41:13.764Z,3.4
2019-03-11T00:41:44.384Z,3.4
2019-03-11T00:42:15.003Z,3.4
2019-03-11T00:42:45.129Z,3.4
2019-03-11T00:43:15.909Z,3.4
2019-03-11T00:43:45.932Z,3.4
2019-03-11T00:44:16.556Z,3.4
2019-03-11T00:45:37.013Z,3.5
2019-03-11T00:46:35.940Z,3.5
2019-03-11T00:47:35.147Z,3.6
2019-03-11T00:48:33.951Z,3.6
2019-03-11T00:49:32.755Z,3.5
2019-03-11T00:50:03.377Z,3.5
2019-03-11T00:50:33.976Z,3.5
2019-03-11T00:51:04.100Z,3.5
2019-03-11T00:51:34.531Z,3.5
2019-03-11T00:52:04.864Z,3.5
2019-03-11T00:52:35.712Z,3.5
2019-03-11T00:53:05.760Z,3.5
2019-03-11T00:53:36.285Z,3.5
2019-03-11T00:54:07.019Z,3.5
2019-03-11T00:55:26.797Z,3.5
2019-03-11T00:56:26.015Z,3.5
2019-03-11T00:58:24.118Z,3.4
2019-03-11T00:59:23.025Z,3.4
2019-03-11T01:00:22.244Z,3.4
2019-03-11T01:00:52.864Z,3.4
2019-03-11T01:01:23.522Z,3.5
2019-03-11T01:01:54.049Z,3.5
2019-03-11T01:02:24.507Z,3.4
2019-03-11T01:02:55.233Z,3.4
2019-03-11T01:03:25.865Z,3.4
2019-03-11T01:03:55.985Z,3.4
2019-03-11T01:05:17.337Z,3.4
2019-03-11T01:06:16.363Z,3.4
2019-03-11T01:07:15.160Z,3.4
2019-03-11T01:08:14.571Z,3.4
2019-03-11T01:09:13.286Z,3.4
2019-03-11T01:10:12.134Z,3.4
2019-03-11T01:10:42.562Z,3.4
2019-03-11T01:11:13.082Z,3.4
2019-03-11T01:11:43.601Z,3.4
2019-03-11T01:12:14.224Z,3.5
2019-03-11T01:12:44.747Z,3.5
2019-03-11T01:13:15.480Z,3.5
2019-03-11T01:13:45.905Z,3.5
2019-03-11T01:15:07.570Z,3.5
2019-03-11T01:16:06.472Z,3.5
2019-03-11T01:17:05.387Z,3.5
2019-03-11T01:18:04.696Z,3.4
2019-03-11T01:19:03.594Z,3.5
2019-03-11T01:20:02.417Z,3.5
2019-03-11T01:21:01.737Z,3.5
2019-03-11T01:21:31.971Z,3.5
2019-03-11T01:22:02.506Z,3.5
2019-03-11T01:22:33.037Z,3.5
2019-03-11T01:23:58.519Z,3.5
2019-03-11T01:24:57.423Z,3.5
2019-03-11T01:25:56.806Z,3.5
2019-03-11T01:26:55.717Z,3.5
2019-03-11T01:27:54.939Z,3.5
2019-03-11T01:28:53.745Z,3.5
2019-03-11T01:29:52.607Z,3.5
2019-03-11T01:30:51.907Z,3.5
2019-03-11T01:31:50.715Z,3.5
2019-03-11T01:32:21.380Z,3.5
2019-03-11T01:32:51.493Z,3.4
2019-03-11T01:33:22.130Z,3.4
2019-03-11T01:34:47.607Z,3.4
2019-03-11T01:35:47.053Z,3.4
2019-03-11T01:36:45.879Z,3.5
2019-03-11T01:37:44.688Z,3.5
2019-03-11T01:38:43.994Z,3.5
2019-03-11T01:39:42.803Z,3.5
2019-03-11T01:40:42.016Z,3.5
2019-03-11T01:41:40.881Z,3.5
2019-03-11T01:42:11.100Z,3.5
2019-03-11T01:42:41.630Z,3.5
2019-03-11T01:43:12.361Z,3.5
2019-03-11T01:44:38.158Z,3.6
2019-03-11T01:45:37.152Z,3.6
2019-03-11T01:46:35.865Z,3.6
2019-03-11T01:47:35.071Z,3.6
2019-03-11T01:48:33.884Z,3.6
2019-03-11T01:49:33.017Z,3.6
2019-03-11T01:50:32.321Z,3.6
2019-03-11T01:51:31.240Z,3.6
2019-03-11T01:53:29.334Z,3.7
2019-03-11T01:54:28.293Z,3.7
2019-03-11T01:55:27.203Z,3.7
2019-03-11T01:57:25.087Z,3.7
2019-03-11T01:57:55.222Z,3.7
2019-03-11T01:58:25.425Z,3.7
2019-03-11T01:59:23.325Z,3.8
2019-03-11T02:00:21.946Z,3.7
2019-03-11T02:01:21.248Z,3.7
2019-03-11T02:02:20.134Z,3.8
2019-03-11T02:03:19.585Z,3.8
2019-03-11T02:04:18.298Z,3.8
2019-03-11T02:05:17.485Z,3.8
2019-03-11T02:06:16.357Z,3.7
2019-03-11T02:07:15.664Z,3.7
2019-03-11T02:08:14.370Z,3.7
2019-03-11T02:08:45.002Z,3.7
2019-03-11T02:09:15.639Z,3.7
2019-03-11T02:10:12.409Z,3.7
2019-03-11T02:11:11.335Z,3.7
2019-03-11T02:12:10.734Z,3.6
2019-03-11T02:13:09.446Z,3.6
2019-03-11T02:14:08.752Z,3.7
2019-03-11T02:15:07.459Z,3.7
2019-03-11T02:16:06.861Z,3.6
2019-03-11T02:17:05.664Z,3.7
2019-03-11T02:17:36.275Z,3.7
2019-03-11T02:18:06.890Z,3.7
2019-03-11T02:18:37.506Z,3.7
2019-03-11T02:20:02.479Z,3.7
2019-03-11T02:21:01.763Z,3.6
2019-03-11T02:22:00.575Z,3.6
2019-03-11T02:22:59.879Z,3.6
2019-03-11T02:23:58.584Z,3.6
2019-03-11T02:24:57.789Z,3.6
2019-03-11T02:25:57.018Z,3.6
2019-03-11T02:26:55.822Z,3.6
2019-03-11T02:27:25.936Z,3.6
2019-03-11T02:27:56.531Z,3.6
2019-03-11T02:28:27.145Z,3.6
2019-03-11T02:28:57.670Z,3.6
2019-03-11T02:29:28.155Z,3.6
2019-03-11T02:30:52.071Z,3.6
2019-03-11T02:31:50.897Z,3.6
2019-03-11T02:32:49.791Z,3.6
2019-03-11T02:33:48.918Z,3.6
2019-03-11T02:34:47.738Z,3.6
2019-03-11T02:35:47.051Z,3.6
2019-03-11T02:36:46.033Z,3.6
2019-03-11T02:37:16.074Z,3.6
2019-03-11T02:37:46.623Z,3.6
2019-03-11T02:38:17.236Z,3.6
2019-03-11T02:38:47.505Z,3.6
2019-03-11T02:39:18.235Z,3.6
2019-03-11T02:40:42.328Z,3.6
2019-03-11T02:42:40.031Z,3.6
2019-03-11T02:43:38.976Z,3.6
2019-03-11T02:45:37.222Z,3.6
2019-03-11T02:46:36.131Z,3.6
2019-03-11T02:47:06.369Z,3.6
2019-03-11T02:47:37.013Z,3.6
2019-03-11T02:48:07.380Z,3.6
2019-03-11T02:48:37.638Z,3.6
2019-03-11T02:49:07.776Z,3.6
2019-03-11T02:49:38.504Z,3.6
2019-03-11T02:50:08.871Z,3.6
2019-03-11T02:51:31.468Z,3.5
2019-03-11T02:52:30.394Z,3.5
2019-03-11T02:53:29.556Z,3.5
2019-03-11T02:54:28.500Z,3.5
2019-03-11T02:55:27.512Z,3.4
2019-03-11T02:56:26.338Z,3.4
2019-03-11T02:56:56.930Z,3.4
2019-03-11T02:57:27.348Z,3.4
2019-03-11T02:57:57.604Z,3.4
2019-03-11T02:58:28.266Z,3.4
2019-03-11T02:58:58.714Z,3.4
2019-03-11T02:59:29.287Z,3.3
2019-03-11T02:59:59.506Z,3.3
2019-03-11T03:00:30.211Z,3.3
2019-03-11T03:01:00.507Z,3.3
2019-03-11T03:02:20.497Z,3.3
2019-03-11T03:03:19.740Z,3.3
2019-03-11T03:04:18.673Z,3.3
2019-03-11T03:05:17.436Z,3.3
2019-03-11T03:06:16.777Z,3.3
2019-03-11T03:06:47.541Z,3.3
2019-03-11T03:07:17.764Z,3.2
2019-03-11T03:07:47.998Z,3.2
2019-03-11T03:08:18.459Z,3.2
2019-03-11T03:08:48.791Z,3.2
2019-03-11T03:09:19.424Z,3.2
2019-03-11T03:09:49.738Z,3.2
2019-03-11T03:10:19.880Z,3.2
2019-03-11T03:10:50.621Z,3.2
2019-03-11T03:12:10.606Z,3.2
2019-03-11T03:13:10.038Z,3.2
2019-03-11T03:14:08.963Z,3.2
2019-03-11T03:15:07.796Z,3.2
2019-03-11T03:16:06.723Z,3.2
2019-03-11T03:16:37.036Z,3.2
2019-03-11T03:17:07.279Z,3.2
2019-03-11T03:17:37.414Z,3.2
2019-03-11T03:18:08.214Z,3.2
2019-03-11T03:18:38.394Z,3.2
2019-03-11T03:19:08.971Z,3.2
2019-03-11T03:19:39.684Z,3.2
2019-03-11T03:20:10.344Z,3.2
2019-03-11T03:20:40.798Z,3.2
2019-03-11T03:22:00.772Z,3.1
2019-03-11T03:23:00.113Z,3.1
2019-03-11T03:23:58.977Z,3.1
2019-03-11T03:24:57.901Z,3.1
2019-03-11T03:25:56.865Z,3.1
2019-03-11T03:26:56.204Z,3.1
2019-03-11T03:27:26.847Z,3.1
2019-03-11T03:27:57.725Z,3.1
2019-03-11T03:28:27.532Z,3.1
2019-03-11T03:28:58.263Z,3.1
2019-03-11T03:29:28.915Z,3.1
2019-03-11T03:29:59.502Z,3.1
2019-03-11T03:30:30.151Z,3.1
2019-03-11T03:31:51.401Z,3.1
2019-03-11T03:32:49.990Z,3.2
2019-03-11T03:33:49.077Z,3.2
2019-03-11T03:34:47.988Z,3.2
2019-03-11T03:35:47.370Z,3.2
2019-03-11T03:36:46.286Z,3.2
2019-03-11T03:37:45.180Z,3.2
2019-03-11T03:38:31.803Z,3.2
2019-03-11T03:39:43.354Z,3.2
2019-03-11T03:40:13.918Z,3.2
2019-03-11T03:40:44.575Z,3.3
2019-03-11T03:41:15.176Z,3.3
2019-03-11T03:41:45.808Z,3.2
2019-03-11T03:42:40.246Z,3.2
2019-03-11T03:43:39.358Z,3.2
2019-03-11T03:44:38.316Z,3.2
2019-03-11T03:45:37.184Z,3.2
2019-03-11T03:46:36.132Z,3.2
2019-03-11T03:47:35.556Z,3.1
2019-03-11T03:48:06.111Z,3.1
2019-03-11T03:48:37.226Z,3.2
2019-03-11T03:49:07.245Z,3.2
2019-03-11T03:49:37.519Z,3.2
2019-03-11T03:50:07.660Z,3.2
2019-03-11T03:51:31.251Z,3.2
2019-03-11T03:52:30.082Z,3.1
2019-03-11T03:53:29.453Z,3.1
2019-03-11T03:54:28.400Z,3.1
2019-03-11T03:55:27.666Z,3.2
2019-03-11T03:56:26.597Z,3.2
2019-03-11T03:57:25.344Z,3.2
2019-03-11T03:58:24.088Z,3.2
2019-03-11T03:58:54.743Z,3.2
2019-03-11T03:59:25.474Z,3.2
2019-03-11T03:59:56.140Z,3.2
2019-03-11T04:00:26.507Z,3.1
2019-03-11T04:00:56.792Z,3.1
2019-03-11T04:01:27.438Z,3.1
2019-03-11T04:02:20.731Z,3.1
2019-03-11T04:03:19.565Z,3.1
2019-03-11T04:04:18.492Z,3.1
2019-03-11T04:05:17.421Z,3.1
2019-03-11T04:06:16.450Z,3.1
2019-03-11T04:07:15.455Z,3.1
2019-03-11T04:08:14.374Z,3.1
2019-03-11T04:09:13.730Z,3.1
2019-03-11T04:09:44.288Z,3.1
2019-03-11T04:10:14.541Z,3.1
2019-03-11T04:11:11.639Z,3.1
2019-03-11T04:12:10.491Z,3.2
2019-03-11T04:13:09.894Z,3.1
2019-03-11T04:14:08.744Z,3.2
2019-03-11T04:14:39.513Z,3.2
2019-03-11T04:15:10.066Z,3.2
2019-03-11T04:17:05.756Z,3.2
2019-03-11T04:18:04.499Z,3.2
2019-03-11T04:19:03.854Z,3.2
2019-03-11T04:19:34.417Z,3.2
2019-03-11T04:20:04.494Z,3.2
2019-03-11T04:21:01.837Z,3.2
2019-03-11T04:22:00.685Z,3.2
2019-03-11T04:22:59.855Z,3.2
2019-03-11T04:23:58.706Z,3.3
2019-03-11T04:24:29.478Z,3.3
2019-03-11T04:24:59.670Z,3.4
2019-03-11T04:25:30.034Z,3.4
2019-03-11T04:26:00.700Z,3.3
2019-03-11T04:26:56.062Z,3.3
2019-03-11T04:27:54.366Z,3.4
2019-03-11T04:28:53.804Z,3.4
2019-03-11T04:29:52.741Z,3.4
2019-03-11T04:30:51.559Z,3.4
2019-03-11T04:31:50.872Z,3.4
2019-03-11T04:32:49.690Z,3.4
2019-03-11T04:33:48.603Z,3.4
2019-03-11T04:34:18.849Z,3.4
2019-03-11T04:34:49.127Z,3.5
2019-03-11T04:35:19.788Z,3.5
2019-03-11T04:35:50.464Z,3.5
2019-03-11T04:36:20.748Z,3.5
2019-03-11T04:36:50.918Z,3.5
2019-03-11T04:37:44.602Z,3.6
2019-03-11T04:38:43.925Z,3.5
2019-03-11T04:39:42.837Z,3.5
2019-03-11T04:40:42.049Z,3.5
2019-03-11T04:41:40.947Z,3.5
2019-03-11T04:42:39.756Z,3.5
2019-03-11T04:43:38.868Z,3.5
2019-03-11T04:44:09.390Z,3.5
2019-03-11T04:44:40.046Z,3.5
2019-03-11T04:45:10.177Z,3.5
2019-03-11T04:46:35.879Z,3.5
2019-03-11T04:47:35.238Z,3.5
2019-03-11T04:48:33.960Z,3.5
2019-03-11T04:49:33.190Z,3.5
2019-03-11T04:50:31.924Z,3.5
2019-03-11T04:51:31.171Z,3.5
2019-03-11T04:52:30.089Z,3.5
2019-03-11T04:53:28.905Z,3.4
2019-03-11T04:53:59.124Z,3.4
2019-03-11T04:54:29.750Z,3.5
2019-03-11T04:55:00.336Z,3.5
2019-03-11T04:55:30.586Z,3.4
2019-03-11T04:56:00.817Z,3.4
2019-03-11T04:58:24.081Z,3.4
2019-03-11T04:59:23.289Z,3.4
2019-03-11T05:00:22.006Z,3.4
2019-03-11T05:01:21.317Z,3.4
2019-03-11T05:02:20.132Z,3.4
2019-03-11T05:03:19.053Z,3.4
2019-03-11T05:03:49.277Z,3.4
2019-03-11T05:04:19.514Z,3.4
2019-03-11T05:04:49.633Z,3.4
2019-03-11T05:05:20.169Z,3.4
2019-03-11T05:05:50.785Z,3.4
2019-03-11T05:06:21.329Z,3.4
2019-03-11T05:06:51.970Z,3.4
2019-03-11T05:08:14.532Z,3.4
2019-03-11T05:09:13.327Z,3.4
2019-03-11T05:10:12.443Z,3.4
2019-03-11T05:11:11.515Z,3.4
2019-03-11T05:13:09.310Z,3.4
2019-03-11T05:13:39.842Z,3.4
2019-03-11T05:14:10.379Z,3.4
2019-03-11T05:14:40.403Z,3.4
2019-03-11T05:15:10.941Z,3.4
2019-03-11T05:15:41.078Z,3.4
2019-03-11T05:16:11.696Z,3.4
2019-03-11T05:16:42.237Z,3.4
2019-03-11T05:18:04.637Z,3.4
2019-03-11T05:19:03.366Z,3.4
2019-03-11T05:20:02.602Z,3.4
2019-03-11T05:21:01.231Z,3.4
2019-03-11T05:22:00.647Z,3.4
2019-03-11T05:22:59.375Z,3.4
2019-03-11T05:23:29.914Z,3.4
2019-03-11T05:24:00.470Z,3.4
2019-03-11T05:24:30.680Z,3.4
2019-03-11T05:25:00.931Z,3.4
2019-03-11T05:25:31.071Z,3.4
2019-03-11T05:26:01.708Z,3.4
2019-03-11T05:26:32.043Z,3.4
2019-03-11T05:27:02.671Z,3.4
2019-03-11T05:27:33.222Z,3.4
2019-03-11T05:28:53.684Z,3.4
2019-03-11T05:30:51.790Z,3.4
2019-03-11T05:31:50.697Z,3.4
2019-03-11T05:32:49.912Z,3.4
2019-03-11T05:33:20.462Z,3.4
2019-03-11T05:33:50.693Z,3.4
2019-03-11T05:34:21.244Z,3.4
2019-03-11T05:34:51.893Z,3.4
2019-03-11T05:35:22.402Z,3.4
2019-03-11T05:35:52.959Z,3.4
2019-03-11T05:36:23.626Z,3.4
2019-03-11T05:36:54.060Z,3.4
2019-03-11T05:37:24.602Z,3.4
2019-03-11T05:38:43.546Z,3.4
2019-03-11T05:39:42.878Z,3.4
2019-03-11T05:40:42.065Z,3.4
2019-03-11T05:41:41.032Z,3.3
2019-03-11T05:42:39.646Z,3.3
2019-03-11T05:43:38.962Z,3.3
2019-03-11T05:44:09.641Z,3.3
2019-03-11T05:44:40.273Z,3.3
2019-03-11T05:45:10.708Z,3.3
2019-03-11T05:45:41.442Z,3.3
2019-03-11T05:46:12.537Z,3.3
2019-03-11T05:46:41.878Z,3.3
2019-03-11T05:47:12.419Z,3.3
2019-03-11T05:48:33.789Z,3.3
2019-03-11T05:49:33.201Z,3.3
2019-03-11T05:50:32.009Z,3.3
2019-03-11T05:51:32.559Z,3.3
2019-03-11T05:52:29.866Z,3.3
2019-03-11T05:53:29.201Z,3.3
2019-03-11T05:54:27.919Z,3.3
2019-03-11T05:54:58.144Z,3.3
2019-03-11T05:55:28.574Z,3.3
2019-03-11T05:55:59.455Z,3.3
2019-03-11T05:56:29.577Z,3.3
2019-03-11T05:56:59.844Z,3.3
2019-03-11T05:58:23.974Z,3.3
2019-03-11T05:59:22.821Z,3.3
2019-03-11T06:00:22.298Z,3.3
2019-03-11T06:01:21.060Z,3.3
2019-03-11T06:02:20.366Z,3.3
2019-03-11T06:04:18.153Z,3.3
2019-03-11T06:04:48.781Z,3.3
2019-03-11T06:05:19.429Z,3.3
2019-03-11T06:05:49.558Z,3.3
2019-03-11T06:06:20.289Z,3.3
2019-03-11T06:06:50.922Z,3.3
2019-03-11T06:08:14.300Z,3.3
2019-03-11T06:09:13.215Z,3.3
2019-03-11T06:10:12.435Z,3.3
2019-03-11T06:11:11.046Z,3.3
2019-03-11T06:14:08.432Z,3.4
2019-03-11T06:18:04.433Z,3.4
2019-03-11T06:19:03.253Z,3.5
2019-03-11T06:22:59.254Z,3.6
2019-03-11T06:23:58.388Z,3.6
2019-03-11T06:25:56.603Z,3.6
2019-03-11T06:26:26.851Z,3.6
2019-03-11T06:26:56.973Z,3.6
2019-03-11T06:32:49.687Z,3.7
2019-03-11T06:33:48.606Z,3.7
2019-03-11T06:34:47.921Z,3.8
2019-03-11T06:35:46.841Z,3.8
2019-03-11T06:36:17.477Z,3.8
2019-03-11T06:37:44.561Z,3.8
2019-03-11T06:38:43.973Z,3.8
2019-03-11T06:39:42.497Z,3.8
2019-03-11T06:40:41.615Z,3.8
2019-03-11T06:41:12.262Z,3.8
2019-03-11T06:41:42.898Z,3.9
2019-03-11T06:42:13.068Z,3.9
2019-03-11T06:46:36.010Z,3.9
2019-03-11T06:50:32.089Z,3.7
2019-03-11T06:51:02.721Z,3.7
2019-03-11T06:52:29.719Z,3.5
2019-03-11T06:59:23.229Z,3.2
2019-03-11T07:06:16.376Z,2.8
2019-03-11T07:08:14.066Z,2.7
2019-03-11T07:11:11.243Z,2.7
2019-03-11T07:11:41.787Z,2.7
2019-03-11T07:15:07.587Z,2.7
2019-03-11T07:16:06.499Z,2.7
2019-03-11T07:22:59.372Z,2.6
2019-03-11T07:23:29.805Z,2.6
2019-03-11T07:26:55.380Z,2.6
2019-03-11T07:27:54.601Z,2.6
2019-03-11T07:30:51.691Z,2.7
2019-03-11T07:31:22.321Z,2.7
2019-03-11T07:31:52.546Z,2.7
2019-03-11T07:32:23.085Z,2.7
2019-03-11T07:33:48.639Z,2.7
2019-03-11T07:34:19.225Z,2.7
2019-03-11T07:35:46.822Z,2.7
2019-03-11T07:36:45.505Z,2.7
2019-03-11T07:38:43.692Z,2.8
2019-03-11T07:39:42.818Z,2.8
2019-03-11T07:40:13.256Z,2.8
2019-03-11T07:45:36.801Z,3
2019-03-11T07:46:35.613Z,3
2019-03-11T07:47:34.927Z,3.1
2019-03-11T07:48:33.856Z,3.1
2019-03-11T07:49:32.768Z,3.2
2019-03-11T07:50:03.000Z,3.2
2019-03-11T07:50:33.255Z,3.2
2019-03-11T07:51:03.911Z,3.2
2019-03-11T07:51:34.523Z,3.3
2019-03-11T07:52:05.138Z,3.3
2019-03-11T07:52:35.260Z,3.3
2019-03-11T07:53:06.000Z,3.3
2019-03-11T07:53:36.647Z,3.4
2019-03-11T07:54:07.279Z,3.4
2019-03-11T07:55:26.825Z,3.5
2019-03-11T07:56:26.051Z,3.5
2019-03-11T07:57:24.857Z,3.5
2019-03-11T07:58:23.978Z,3.5
2019-03-11T07:59:22.697Z,3.5
2019-03-11T08:00:22.005Z,3.5
2019-03-11T08:00:54.746Z,3.5
2019-03-11T08:01:22.961Z,3.6
2019-03-11T08:01:53.592Z,3.6
2019-03-11T08:02:24.155Z,3.6
2019-03-11T08:02:54.885Z,3.6
2019-03-11T08:03:25.121Z,3.6
2019-03-11T08:03:55.743Z,3.6
2019-03-11T08:05:17.298Z,3.6
2019-03-11T08:06:19.531Z,3.6
2019-03-11T08:07:15.251Z,3.7
2019-03-11T08:08:13.874Z,3.7
2019-03-11T08:09:13.306Z,3.7
2019-03-11T08:10:12.024Z,3.7
2019-03-11T08:10:42.561Z,3.7
2019-03-11T08:11:13.192Z,3.8
2019-03-11T08:11:43.741Z,3.8
2019-03-11T08:12:14.490Z,3.8
2019-03-11T08:12:45.152Z,3.8
2019-03-11T08:13:15.688Z,3.8
2019-03-11T08:13:46.222Z,3.8
2019-03-11T08:15:07.086Z,3.8
2019-03-11T08:16:06.511Z,3.8
2019-03-11T08:17:05.427Z,3.8
2019-03-11T08:18:04.145Z,3.8
2019-03-11T08:19:03.557Z,3.8
2019-03-11T08:20:02.396Z,3.9
2019-03-11T08:21:01.222Z,3.9
2019-03-11T08:21:31.747Z,3.9
2019-03-11T08:22:02.475Z,3.9
2019-03-11T08:22:33.014Z,3.9
2019-03-11T08:23:03.450Z,3.9
2019-03-11T08:23:36.298Z,3.9
2019-03-11T08:24:57.355Z,3.9
2019-03-11T08:25:56.572Z,4
2019-03-11T08:26:55.479Z,4
2019-03-11T08:27:54.380Z,4
2019-03-11T08:28:53.604Z,4.1
2019-03-11T08:29:52.526Z,4.1
2019-03-11T08:30:51.352Z,4.1
2019-03-11T08:31:50.474Z,4.1
2019-03-11T08:32:20.810Z,4.1
2019-03-11T08:32:51.347Z,4.2
2019-03-11T08:33:21.954Z,4.2
2019-03-11T08:33:52.246Z,4.2
2019-03-11T08:34:22.882Z,4.2
2019-03-11T08:34:53.312Z,4.2
2019-03-11T08:35:46.689Z,4.3
2019-03-11T08:37:44.701Z,4.3
2019-03-11T08:38:43.594Z,4.3
2019-03-11T08:40:43.498Z,4.3
2019-03-11T08:41:40.907Z,4.3
2019-03-11T08:42:39.728Z,4.3
2019-03-11T08:43:09.855Z,4.3
2019-03-11T08:43:40.420Z,4.3
2019-03-11T08:44:37.741Z,4.3
2019-03-11T08:45:37.063Z,4.3
2019-03-11T08:46:35.882Z,4.4
2019-03-11T08:47:34.692Z,4.4
2019-03-11T08:48:33.923Z,4.4
2019-03-11T08:49:33.232Z,4.4
2019-03-11T08:50:32.052Z,4.4
2019-03-11T08:51:30.763Z,4.4
2019-03-11T08:52:29.888Z,4.5
2019-03-11T08:53:00.122Z,4.5
2019-03-11T08:53:30.359Z,4.4
2019-03-11T08:54:28.156Z,4.4
2019-03-11T08:55:27.073Z,4.4
2019-03-11T08:56:26.003Z,4.4
2019-03-11T08:57:25.320Z,4.4
2019-03-11T08:57:55.952Z,4.4
2019-03-11T08:58:26.196Z,4.4
2019-03-11T08:59:23.495Z,4.3
2019-03-11T09:00:22.310Z,4.3
2019-03-11T09:01:21.215Z,4.3
2019-03-11T09:02:20.531Z,4.4
2019-03-11T09:03:19.363Z,4.4
2019-03-11T09:04:18.315Z,4.4
2019-03-11T09:05:17.743Z,4.4
2019-03-11T09:06:16.654Z,4.4
2019-03-11T09:07:15.276Z,4.4
2019-03-11T09:07:45.920Z,4.4
2019-03-11T09:08:16.548Z,4.5
2019-03-11T09:08:46.682Z,4.5
2019-03-11T09:09:17.243Z,4.5
2019-03-11T09:10:12.550Z,4.5
2019-03-11T09:11:11.410Z,4.4
2019-03-11T09:13:09.738Z,4.4
2019-03-11T09:14:08.959Z,4.5
2019-03-11T09:15:07.863Z,4.5
2019-03-11T09:16:06.983Z,4.5
2019-03-11T09:18:04.589Z,4.6
2019-03-11T09:18:35.331Z,4.6
2019-03-11T09:20:02.836Z,4.6
2019-03-11T09:21:04.646Z,4.7
2019-03-11T09:22:00.848Z,4.7
2019-03-11T09:23:00.066Z,4.7
2019-03-11T09:23:59.293Z,4.6
2019-03-11T09:24:58.199Z,4.6
2019-03-11T09:25:57.111Z,4.7
2019-03-11T09:26:56.448Z,4.6
2019-03-11T09:27:26.727Z,4.6
2019-03-11T09:27:56.946Z,4.7
2019-03-11T09:28:27.778Z,4.7
2019-03-11T09:29:53.097Z,4.8
2019-03-11T09:30:52.516Z,4.8
2019-03-11T09:31:51.444Z,4.8
2019-03-11T09:32:50.247Z,4.9
2019-03-11T09:33:49.472Z,4.9
2019-03-11T09:34:48.283Z,4.9
2019-03-11T09:35:47.591Z,4.9
2019-03-11T09:36:46.217Z,4.8
2019-03-11T09:37:16.849Z,4.8
2019-03-11T09:37:47.379Z,4.8
2019-03-11T09:38:18.193Z,4.8
2019-03-11T09:38:48.248Z,4.8
2019-03-11T09:39:18.687Z,4.8
2019-03-11T09:39:49.222Z,4.8
2019-03-11T09:40:19.982Z,4.8
2019-03-11T09:43:39.621Z,4.9
2019-03-11T09:44:38.752Z,4.8
2019-03-11T09:45:37.661Z,4.9
2019-03-11T09:46:37.052Z,4.9
2019-03-11T09:47:07.589Z,4.9
2019-03-11T09:47:38.144Z,4.8
2019-03-11T09:48:08.671Z,4.8
2019-03-11T09:48:39.302Z,4.8
2019-03-11T09:49:09.622Z,4.8
2019-03-11T09:49:39.757Z,4.8
2019-03-11T09:50:10.376Z,4.8
2019-03-11T09:51:31.730Z,4.8
2019-03-11T09:52:31.040Z,4.7
2019-03-11T09:54:29.247Z,4.7
2019-03-11T09:55:28.053Z,4.7
2019-03-11T09:56:27.258Z,4.7
2019-03-11T09:56:57.904Z,4.7
2019-03-11T09:57:28.336Z,4.7
2019-03-11T09:57:58.962Z,4.7
2019-03-11T09:58:29.594Z,4.7
2019-03-11T09:58:59.818Z,4.7
2019-03-11T10:00:23.378Z,4.7
2019-03-11T10:00:53.815Z,4.7
2019-03-11T10:02:21.325Z,4.7
2019-03-11T10:03:20.741Z,4.7
2019-03-11T10:04:19.580Z,4.8
2019-03-11T10:05:18.714Z,4.8
2019-03-11T10:06:17.530Z,4.8
2019-03-11T10:06:48.091Z,4.8
2019-03-11T10:07:18.723Z,4.9
2019-03-11T10:07:49.086Z,4.9
2019-03-11T10:08:19.343Z,5
2019-03-11T10:08:49.918Z,5
2019-03-11T10:09:20.558Z,5.1
2019-03-11T10:09:51.211Z,5.1
2019-03-11T10:10:21.432Z,5.2
2019-03-11T10:10:52.091Z,5.2
2019-03-11T10:12:11.642Z,5.2
2019-03-11T10:14:09.732Z,5.2
2019-03-11T10:15:09.083Z,5.3
2019-03-11T10:16:07.801Z,5.3
2019-03-11T10:18:06.073Z,5.2
2019-03-11T10:18:36.207Z,5.2
2019-03-11T10:19:06.946Z,5.2
2019-03-11T10:19:37.175Z,5.2
2019-03-11T10:20:07.310Z,5.2
2019-03-11T10:20:37.958Z,5.2
2019-03-11T10:22:01.971Z,5.3
2019-03-11T10:23:01.288Z,5.2
2019-03-11T10:24:00.618Z,5.2
2019-03-11T10:24:59.349Z,5.2
2019-03-11T10:25:58.477Z,5.2
2019-03-11T10:26:57.201Z,5.2
2019-03-11T10:27:56.327Z,5.2
2019-03-11T10:28:26.545Z,5.2
2019-03-11T10:28:57.176Z,5.3
2019-03-11T10:29:27.823Z,5.3
2019-03-11T10:29:58.150Z,5.3
2019-03-11T10:30:28.676Z,5.3
2019-03-11T10:31:52.959Z,5.4
2019-03-11T10:32:51.695Z,5.5
2019-03-11T10:33:50.929Z,5.4
2019-03-11T10:34:49.654Z,5.3
2019-03-11T10:35:48.974Z,5.3
2019-03-11T10:36:47.803Z,5.3
2019-03-11T10:37:46.832Z,5.3
2019-03-11T10:38:46.256Z,5.2
2019-03-11T10:39:16.430Z,5.2
2019-03-11T10:39:48.600Z,5.1
2019-03-11T10:40:17.631Z,5.1
2019-03-11T10:41:43.122Z,5.1
2019-03-11T10:42:42.441Z,5.1
2019-03-11T10:43:41.159Z,5
2019-03-11T10:44:40.184Z,5
2019-03-11T10:45:39.401Z,5
2019-03-11T10:46:38.625Z,5.1
2019-03-11T10:47:37.252Z,5.1
2019-03-11T10:48:38.102Z,5.1
2019-03-11T10:49:06.827Z,5.1
2019-03-11T10:49:37.468Z,5.1
2019-03-11T10:50:07.994Z,5.1
2019-03-11T10:51:33.610Z,5.1
2019-03-11T10:52:32.640Z,5.1
2019-03-11T10:53:31.604Z,5.1
2019-03-11T10:54:30.719Z,5.1
2019-03-11T10:55:29.882Z,5.1
2019-03-11T10:56:28.699Z,5.1
2019-03-11T10:57:27.910Z,5.1
2019-03-11T10:58:29.427Z,5.2
2019-03-11T10:59:25.732Z,5.2
2019-03-11T10:59:56.316Z,5.2
2019-03-11T11:00:26.542Z,5.2
2019-03-11T11:02:23.138Z,5.1
2019-03-11T11:04:21.336Z,5
2019-03-11T11:06:19.141Z,5
2019-03-11T11:07:18.464Z,5
2019-03-11T11:08:17.299Z,5
2019-03-11T11:09:16.729Z,5
2019-03-11T11:10:15.536Z,5.1
2019-03-11T11:11:14.656Z,5.1
2019-03-11T11:12:13.469Z,5.1
2019-03-11T11:13:12.875Z,5.2
2019-03-11T11:15:10.472Z,5.2
2019-03-11T11:15:41.094Z,5.2
2019-03-11T11:16:11.437Z,5.3
2019-03-11T11:17:08.752Z,5.3
2019-03-11T11:20:05.834Z,5.3
2019-03-11T11:21:05.040Z,5.3
2019-03-11T11:22:03.676Z,5.3
2019-03-11T11:23:03.009Z,5.3
2019-03-11T11:24:02.392Z,5.2
2019-03-11T11:25:01.024Z,5.2
2019-03-11T11:25:31.680Z,5.2
2019-03-11T11:26:59.074Z,5.3
2019-03-11T11:27:58.288Z,5.3
2019-03-11T11:28:57.509Z,5.2
2019-03-11T11:29:56.320Z,5.2
2019-03-11T11:30:55.542Z,5.1
2019-03-11T11:31:54.458Z,5.1
2019-03-11T11:32:53.869Z,5.1
2019-03-11T11:33:52.682Z,5.1
2019-03-11T11:34:23.304Z,5.1
2019-03-11T11:34:53.749Z,5.1
2019-03-11T11:35:24.375Z,5.1
2019-03-11T11:35:54.517Z,5.2
2019-03-11T11:36:25.175Z,5.2
2019-03-11T11:37:48.814Z,5.2
2019-03-11T11:38:47.661Z,5.2
2019-03-11T11:39:47.081Z,5.3
2019-03-11T11:40:45.993Z,5.2
2019-03-11T11:41:44.705Z,5.2
2019-03-11T11:42:43.924Z,5.2
2019-03-11T11:43:43.342Z,5.2
2019-03-11T11:44:13.977Z,5.2
2019-03-11T11:44:44.505Z,5.3
2019-03-11T11:45:15.138Z,5.3
2019-03-11T11:45:45.871Z,5.3
2019-03-11T11:46:15.895Z,5.3
2019-03-11T11:46:46.538Z,5.2
2019-03-11T11:47:17.172Z,5.2
2019-03-11T11:48:38.225Z,5.2
2019-03-11T11:49:37.549Z,5.2
2019-03-11T11:50:36.061Z,5.3
2019-03-11T11:51:35.492Z,5.3
2019-03-11T11:52:34.803Z,5.3
2019-03-11T11:53:33.672Z,5.4
2019-03-11T11:54:04.306Z,5.4
2019-03-11T11:54:34.838Z,5.4
2019-03-11T11:55:05.029Z,5.4
2019-03-11T11:55:35.651Z,5.4
2019-03-11T11:56:06.288Z,5.4
2019-03-11T11:56:36.596Z,5.5
2019-03-11T11:57:06.734Z,5.5
2019-03-11T11:58:28.702Z,5.6
2019-03-11T11:59:28.128Z,5.6
2019-03-11T12:00:26.953Z,5.6
2019-03-11T12:01:25.682Z,5.7
2019-03-11T12:02:24.898Z,5.7
2019-03-11T12:04:23.092Z,5.7
2019-03-11T12:04:53.345Z,5.7
2019-03-11T12:05:23.876Z,5.8
2019-03-11T12:05:54.468Z,5.8
2019-03-11T12:06:25.194Z,5.9
2019-03-11T12:06:55.733Z,5.9
2019-03-11T12:07:26.575Z,5.9
2019-03-11T12:07:56.897Z,5.9
2019-03-11T12:10:17.251Z,5.8
2019-03-11T12:11:16.473Z,5.8
2019-03-11T12:12:15.690Z,5.8
2019-03-11T12:13:14.619Z,5.9
2019-03-11T12:13:45.263Z,5.9
2019-03-11T12:14:15.402Z,5.8
2019-03-11T12:14:46.036Z,5.8
2019-03-11T12:15:16.571Z,5.8
2019-03-11T12:15:47.005Z,5.8
2019-03-11T12:16:17.583Z,5.8
2019-03-11T12:16:48.394Z,5.8
2019-03-11T12:17:18.614Z,5.7
2019-03-11T12:17:48.764Z,5.7
2019-03-11T12:18:19.293Z,5.8
2019-03-11T12:18:49.894Z,5.8
2019-03-11T12:20:07.935Z,5.7
2019-03-11T12:22:06.125Z,5.7
2019-03-11T12:24:04.319Z,5.7
2019-03-11T12:24:34.949Z,5.7
2019-03-11T12:25:05.581Z,5.5
2019-03-11T12:25:35.810Z,5.5